Horinsk, Russia
Current Conditions -  °F | °C
As of 4:00 PM on Monday 20 Oct 2014 (Local Time) from UIUU Reporting Station
Clear Clear  
Wind Chill: 19°   Ceiling: Unl
Heat Index: 27°   Visibility: 6mi
Dew Point:   Wind: 7mph
Humidity: 43%   Direction: 240°WSW
Pressure: 30.3"   Gusts: NA
Location:  52.17°N, 109.77°E
Report Text: UIUU 200800Z 24003MPS 200V280 9999 SKC M03/M14 Q1026 NOSIG RMKQFE724/0966 26CLRD60
Loading
Personal Weather Stations






























Interactive Weather Map
Tropical Storm Tracking
New forecast layout! Learn more

10-Day Weather Forecast

Advertisements
Track Severe Weather on mobile